Time;durP1;ratioP1;P1;durP2;ratioP2;P2;SDS_P1;SDS_P2;PMS_P1;PMS_P2;Temp;Humidity;BMP_temperature;BMP_pressure;BME280_temperature;BME280_humidity;BME280_pressure;Samples;Min_cycle;Max_cycle;Signal;HPM_P1;HPM_P2
2023/01/14 00:01:22;;;;;;;;;106.50;99.75;;;;;;;;5030654;28;8887;-70
2023/01/14 00:03:57;;;;;;;;;102.50;91.25;;;;;;;;5029081;28;8808;-69
2023/01/14 00:06:26;;;;;;;;;106.25;97.50;;;;;;;;5030601;28;8807;-69
2023/01/14 00:08:52;;;;;;;;;100.75;92.75;;;;;;;;5030341;28;8795;-68
2023/01/14 00:11:17;;;;;;;;;105.75;96.00;;;;;;;;5030335;28;8796;-69
2023/01/14 00:13:43;;;;;;;;;104.00;96.75;;;;;;;;5030478;28;8962;-69
2023/01/14 00:16:11;;;;;;;;;104.00;93.75;;;;;;;;5030345;28;8835;-70
2023/01/14 00:18:37;;;;;;;;;102.00;92.50;;;;;;;;5017396;28;9011;-68
2023/01/14 00:21:03;;;;;;;;;108.50;97.00;;;;;;;;5010697;28;8849;-68
2023/01/14 00:23:30;;;;;;;;;103.00;92.50;;;;;;;;5010803;28;8822;-69
2023/01/14 00:26:10;;;;;;;;;110.00;100.25;;;;;;;;5010472;28;8908;-69
2023/01/14 00:28:35;;;;;;;;;111.00;100.75;;;;;;;;5009307;28;9580;-69
2023/01/14 00:31:02;;;;;;;;;102.25;92.00;;;;;;;;5010555;28;8949;-69
2023/01/14 00:33:27;;;;;;;;;110.00;101.75;;;;;;;;5010470;28;8802;-69
2023/01/14 00:35:53;;;;;;;;;105.50;96.50;;;;;;;;5009827;28;8794;-70
2023/01/14 00:38:18;;;;;;;;;108.25;100.00;;;;;;;;5010102;28;8810;-69
2023/01/14 00:40:43;;;;;;;;;117.00;103.50;;;;;;;;5010151;28;9597;-68
2023/01/14 00:43:09;;;;;;;;;108.50;99.75;;;;;;;;5010071;28;8861;-68
2023/01/14 00:45:34;;;;;;;;;104.75;92.75;;;;;;;;5009977;28;8884;-69
2023/01/14 00:47:59;;;;;;;;;109.75;98.75;;;;;;;;5010107;28;8849;-69
2023/01/14 00:50:24;;;;;;;;;112.50;99.75;;;;;;;;5010255;28;8802;-69
2023/01/14 00:52:50;;;;;;;;;111.75;105.00;;;;;;;;5010096;28;8798;-68
2023/01/14 00:55:15;;;;;;;;;112.25;102.25;;;;;;;;5010236;28;8786;-69
2023/01/14 00:57:41;;;;;;;;;110.75;104.00;;;;;;;;5009921;28;8841;-69
2023/01/14 01:00:06;;;;;;;;;106.00;92.75;;;;;;;;5008587;28;8819;-69
2023/01/14 01:02:32;;;;;;;;;102.75;89.25;;;;;;;;5009924;28;8794;-68
2023/01/14 01:04:57;;;;;;;;;80.00;56.25;;;;;;;;5009885;28;9564;-69
2023/01/14 01:07:22;;;;;;;;;101.50;92.00;;;;;;;;5009865;28;8921;-69
2023/01/14 01:09:48;;;;;;;;;104.25;94.25;;;;;;;;5009687;28;8795;-69
2023/01/14 01:12:13;;;;;;;;;101.75;91.50;;;;;;;;5009761;28;8791;-68
2023/01/14 01:14:39;;;;;;;;;101.00;85.50;;;;;;;;5009889;28;8830;-69
2023/01/14 01:17:07;;;;;;;;;103.50;92.50;;;;;;;;5009652;28;8853;-69
2023/01/14 01:19:32;;;;;;;;;107.50;94.25;;;;;;;;5010338;28;8822;-69
2023/01/14 01:21:58;;;;;;;;;103.00;90.75;;;;;;;;5009651;28;8810;-70
2023/01/14 01:24:23;;;;;;;;;104.00;96.50;;;;;;;;5009493;28;8810;-69
2023/01/14 01:26:48;;;;;;;;;106.25;95.75;;;;;;;;5009606;28;8846;-69
2023/01/14 01:29:14;;;;;;;;;97.75;83.75;;;;;;;;5009564;28;8937;-70
2023/01/14 01:31:40;;;;;;;;;95.00;79.25;;;;;;;;5009521;28;8818;-68
2023/01/14 01:34:05;;;;;;;;;100.00;84.75;;;;;;;;5009473;28;8826;-69
2023/01/14 01:36:30;;;;;;;;;99.25;84.50;;;;;;;;5009567;28;8854;-68
2023/01/14 01:38:56;;;;;;;;;96.25;76.75;;;;;;;;5009317;28;9536;-69
2023/01/14 01:41:21;;;;;;;;;93.00;75.75;;;;;;;;5009366;28;8802;-69
2023/01/14 01:43:56;;;;;;;;;100.50;84.50;;;;;;;;5009279;28;8895;-69
2023/01/14 01:46:21;;;;;;;;;94.25;74.75;;;;;;;;5009340;28;8913;-69
2023/01/14 01:48:47;;;;;;;;;98.00;85.50;;;;;;;;5011334;28;8815;-69
2023/01/14 01:51:15;;;;;;;;;97.75;84.50;;;;;;;;5013231;28;8837;-68
2023/01/14 01:53:42;;;;;;;;;100.00;84.50;;;;;;;;5013247;28;8813;-69
2023/01/14 01:56:09;;;;;;;;;98.75;85.00;;;;;;;;5013196;28;8803;-68
2023/01/14 01:58:35;;;;;;;;;88.75;72.00;;;;;;;;5013209;28;9521;-69
2023/01/14 02:01:01;;;;;;;;;94.75;81.25;;;;;;;;5011717;28;8860;-69
2023/01/14 02:03:30;;;;;;;;;98.50;75.75;;;;;;;;5013046;28;8818;-69
2023/01/14 02:05:56;;;;;;;;;97.75;79.25;;;;;;;;5012993;28;8810;-68
2023/01/14 02:08:21;;;;;;;;;102.00;82.00;;;;;;;;5013136;28;8806;-69
2023/01/14 02:10:50;;;;;;;;;96.00;82.75;;;;;;;;5012840;28;8884;-69
2023/01/14 02:13:25;;;;;;;;;101.00;84.75;;;;;;;;5012924;28;8810;-68
2023/01/14 02:15:54;;;;;;;;;99.00;82.00;;;;;;;;5012726;28;8802;-69
2023/01/14 02:18:33;;;;;;;;;98.50;84.50;;;;;;;;5012821;28;8916;-69
2023/01/14 10:05:10;;;;;;;;;82.50;64.50;;;;;;;;5102893;27;13505;-70
2023/01/14 10:07:36;;;;;;;;;81.25;64.25;;;;;;;;5086230;28;8803;-70
2023/01/14 10:10:01;;;;;;;;;;;;;;;;;;5088362;28;8880;-71
2023/01/14 10:12:26;;;;;;;;;;;;;;;;;;5087761;28;7578;-70
2023/01/14 10:14:52;;;;;;;;;;;;;;;;;;5086447;28;7991;-68
2023/01/14 10:17:19;;;;;;;;;84.25;66.00;;;;;;;;5084417;28;8035;-70
2023/01/14 10:19:44;;;;;;;;;;;;;;;;;;5086827;28;8814;-70
2023/01/14 10:22:09;;;;;;;;;;;;;;;;;;5086519;28;7540;-69
2023/01/14 10:24:35;;;;;;;;;;;;;;;;;;5087688;28;7520;-70
2023/01/14 10:27:00;;;;;;;;;;;;;;;;;;5045371;28;10605;-71
2023/01/14 10:29:48;;;;;;;;;76.00;60.00;;;;;;;;5104985;27;13516;-74
2023/01/14 10:32:15;;;;;;;;;80.00;63.50;;;;;;;;5080805;28;13590;-73
2023/01/14 10:34:41;;;;;;;;;77.40;62.00;;;;;;;;5049466;28;13567;-72
2023/01/14 10:37:08;;;;;;;;;72.67;58.00;;;;;;;;5086162;28;8932;-72
2023/01/14 10:39:33;;;;;;;;;;;;;;;;;;5073240;28;8861;-72
2023/01/14 10:42:00;;;;;;;;;69.50;58.25;;;;;;;;5060600;28;7529;-72
2023/01/14 10:44:38;;;;;;;;;80.75;65.25;;;;;;;;5061313;28;13681;-72
2023/01/14 10:47:06;;;;;;;;;78.40;63.00;;;;;;;;5061477;28;13563;-72
2023/01/14 10:49:51;;;;;;;;;82.20;61.80;;;;;;;;5053462;28;13610;-72
2023/01/14 10:52:17;;;;;;;;;;;;;;;;;;5076121;28;8944;-72
2023/01/14 10:54:55;;;;;;;;;70.75;57.25;;;;;;;;5074236;28;8839;-72
2023/01/14 10:57:20;;;;;;;;;70.00;59.00;;;;;;;;5072884;28;9704;-73
2023/01/14 10:59:53;;;;;;;;;72.00;56.00;;;;;;;;5065388;28;8905;-73
2023/01/14 11:02:20;;;;;;;;;66.67;55.33;;;;;;;;5070435;28;14278;-73
2023/01/14 11:04:46;;;;;;;;;70.33;55.67;;;;;;;;5061619;28;13535;-72
2023/01/14 11:07:14;;;;;;;;;73.67;57.67;;;;;;;;5069360;28;14412;-72
2023/01/14 11:09:40;;;;;;;;;70.33;55.33;;;;;;;;5060775;28;14448;-73
2023/01/14 11:12:05;;;;;;;;;63.00;52.00;;;;;;;;5072673;28;8916;-73
2023/01/14 11:14:35;;;;;;;;;66.00;53.67;;;;;;;;5077520;28;8838;-75
2023/01/14 11:17:19;;;;;;;;;58.50;48.00;;;;;;;;5069490;28;8830;-76
2023/01/14 11:19:44;;;;;;;;;64.25;53.25;;;;;;;;5096709;22;11727;-73
2023/01/14 11:22:10;;;;;;;;;63.00;52.00;;;;;;;;5093739;28;11550;-72
2023/01/14 11:24:40;;;;;;;;;70.00;54.75;;;;;;;;5093782;28;8790;-73
2023/01/14 11:27:12;;;;;;;;;63.00;51.00;;;;;;;;5098348;28;8815;-73
2023/01/14 11:29:42;;;;;;;;;55.75;47.00;;;;;;;;5096479;28;11459;-73
2023/01/14 11:32:09;;;;;;;;;58.50;48.75;;;;;;;;5077967;28;12167;-71
2023/01/14 11:34:36;;;;;;;;;53.75;43.75;;;;;;;;5096798;28;11388;-70
2023/01/14 11:37:04;;;;;;;;;57.25;47.00;;;;;;;;5093552;28;11414;-72
2023/01/14 11:39:32;;;;;;;;;60.75;48.00;;;;;;;;5062423;28;11428;-71
2023/01/14 11:41:57;;;;;;;;;54.00;44.50;;;;;;;;5082334;28;11423;-70
2023/01/14 11:44:23;;;;;;;;;51.75;44.00;;;;;;;;5087564;28;11134;-72
2023/01/14 11:47:01;;;;;;;;;52.75;43.75;;;;;;;;5083443;28;8819;-71
2023/01/14 11:49:27;;;;;;;;;57.25;46.25;;;;;;;;5082334;28;8945;-70
2023/01/14 11:52:02;;;;;;;;;57.25;46.25;;;;;;;;5089594;28;11710;-70
2023/01/14 11:54:39;;;;;;;;;55.00;46.00;;;;;;;;5091124;28;11401;-71
2023/01/14 11:57:04;;;;;;;;;52.00;42.25;;;;;;;;5087535;28;11384;-71
2023/01/14 11:59:30;;;;;;;;;57.25;44.75;;;;;;;;5077162;28;11533;-72
2023/01/14 12:01:59;;;;;;;;;47.75;40.00;;;;;;;;5052962;28;8951;-72
2023/01/14 12:04:28;;;;;;;;;50.00;44.00;;;;;;;;5070866;28;8786;-70
2023/01/14 12:06:58;;;;;;;;;45.00;38.50;;;;;;;;5086845;28;11489;-72
2023/01/14 12:09:26;;;;;;;;;38.75;36.50;;;;;;;;5090025;28;11395;-72
2023/01/14 12:11:56;;;;;;;;;32.75;30.00;;;;;;;;5070128;28;11502;-71
2023/01/14 12:17:13;;;;;;;;;38.25;31.00;;;;;;;;5079282;28;11530;-73
2023/01/14 12:19:51;;;;;;;;;35.00;34.75;;;;;;;;5079396;28;11395;-71
2023/01/14 12:22:28;;;;;;;;;34.00;33.00;;;;;;;;5079038;28;12263;-71
2023/01/14 12:25:12;;;;;;;;;31.50;27.50;;;;;;;;5078333;28;11548;-71
2023/01/14 12:27:48;;;;;;;;;32.50;29.25;;;;;;;;5078686;28;11494;-71
2023/01/14 12:30:22;;;;;;;;;37.25;31.75;;;;;;;;5086178;28;11476;-72
2023/01/14 12:32:52;;;;;;;;;37.00;31.50;;;;;;;;5077498;28;11421;-72
2023/01/14 12:35:19;;;;;;;;;37.25;32.25;;;;;;;;5064238;28;11469;-74
2023/01/14 12:37:50;;;;;;;;;27.50;23.50;;;;;;;;5085873;28;11454;-72
2023/01/14 12:45:49;;;;;;;;;13.25;11.00;;;;;;;;5072864;28;11337;-69
2023/01/14 12:48:18;;;;;;;;;10.50;9.75;;;;;;;;5084000;28;11492;-70
2023/01/14 12:50:50;;;;;;;;;17.25;14.00;;;;;;;;5069657;28;11452;-69
2023/01/14 12:53:23;;;;;;;;;21.75;20.00;;;;;;;;5080903;28;11398;-73
2023/01/14 12:55:50;;;;;;;;;18.00;14.50;;;;;;;;5081501;28;11355;-72
2023/01/14 12:58:22;;;;;;;;;20.00;19.00;;;;;;;;5077715;28;11483;-70
2023/01/14 13:00:57;;;;;;;;;12.75;12.50;;;;;;;;5070749;28;11392;-70
2023/01/14 13:03:46;;;;;;;;;13.00;11.00;;;;;;;;5073910;28;12150;-71
2023/01/14 13:06:32;;;;;;;;;4.25;4.25;;;;;;;;5081386;28;11411;-71
2023/01/14 13:08:57;;;;;;;;;10.00;9.50;;;;;;;;5062889;28;11371;-70
2023/01/14 13:11:39;;;;;;;;;13.00;10.00;;;;;;;;5077561;28;11381;-71
2023/01/14 13:14:04;;;;;;;;;17.00;14.50;;;;;;;;5071967;28;8790;-70
2023/01/14 13:16:35;;;;;;;;;17.00;13.25;;;;;;;;5077769;28;11400;-71
2023/01/14 13:19:02;;;;;;;;;14.00;13.00;;;;;;;;5089369;28;9991;-70
2023/01/14 13:21:53;;;;;;;;;13.25;10.50;;;;;;;;5082046;28;11361;-72
2023/01/14 13:24:28;;;;;;;;;14.25;11.00;;;;;;;;5059739;28;11525;-71
2023/01/14 13:26:54;;;;;;;;;19.00;12.00;;;;;;;;5069121;28;11377;-70
2023/01/14 13:29:25;;;;;;;;;17.00;15.00;;;;;;;;5079140;28;11400;-72
2023/01/14 13:31:50;;;;;;;;;17.25;11.00;;;;;;;;5073582;28;11422;-72
2023/01/14 13:34:18;;;;;;;;;13.00;10.00;;;;;;;;5067160;28;11647;-74
2023/01/14 13:36:45;;;;;;;;;10.75;10.75;;;;;;;;5032182;28;8835;-72
2023/01/14 13:39:11;;;;;;;;;8.50;8.50;;;;;;;;4994858;28;11580;-75
2023/01/14 13:41:38;;;;;;;;;9.75;9.00;;;;;;;;5049891;28;11397;-72
2023/01/14 13:44:04;;;;;;;;;10.75;8.75;;;;;;;;5080753;28;8792;-73
2023/01/14 13:46:32;;;;;;;;;7.50;7.25;;;;;;;;5090112;28;11427;-73
2023/01/14 13:48:59;;;;;;;;;10.00;9.00;;;;;;;;5089268;28;11340;-71
2023/01/14 13:51:39;;;;;;;;;9.50;8.50;;;;;;;;5071783;28;11323;-72
2023/01/14 13:54:17;;;;;;;;;13.00;11.00;;;;;;;;5088799;28;11466;-72
2023/01/14 13:56:50;;;;;;;;;8.25;6.00;;;;;;;;5088281;28;11352;-72
2023/01/14 13:59:21;;;;;;;;;8.00;6.50;;;;;;;;5087864;28;11477;-72
2023/01/14 14:01:47;;;;;;;;;7.50;5.50;;;;;;;;5089718;28;11316;-74
2023/01/14 14:04:14;;;;;;;;;4.00;4.00;;;;;;;;5089214;28;12031;-74
2023/01/14 14:06:43;;;;;;;;;5.25;5.00;;;;;;;;5077043;28;8814;-75
2023/01/14 14:09:11;;;;;;;;;5.00;4.00;;;;;;;;5069009;28;11359;-73
2023/01/14 14:11:43;;;;;;;;;10.50;6.00;;;;;;;;5069129;28;11352;-72
2023/01/14 14:14:15;;;;;;;;;5.00;5.00;;;;;;;;5079730;28;11337;-70
2023/01/14 14:17:10;;;;;;;;;7.50;5.75;;;;;;;;5068097;28;11364;-74
2023/01/14 14:19:44;;;;;;;;;5.50;5.25;;;;;;;;5024945;28;11416;-72
2023/01/14 14:22:10;;;;;;;;;8.00;6.00;;;;;;;;5024840;28;11482;-73
2023/01/14 14:24:43;;;;;;;;;5.50;5.50;;;;;;;;5024929;28;11480;-71
2023/01/14 14:27:11;;;;;;;;;13.75;10.50;;;;;;;;5024906;28;8800;-73
2023/01/14 14:29:39;;;;;;;;;7.00;7.00;;;;;;;;5025430;28;11458;-72
2023/01/14 14:32:21;;;;;;;;;9.00;7.25;;;;;;;;5009998;28;11362;-75
2023/01/14 14:35:05;;;;;;;;;7.25;7.25;;;;;;;;5026063;28;11389;-71
2023/01/14 14:37:34;;;;;;;;;10.00;7.00;;;;;;;;5024617;28;11410;-72
2023/01/14 14:39:59;;;;;;;;;10.00;8.00;;;;;;;;5008325;28;12175;-72
2023/01/14 14:42:25;;;;;;;;;10.50;8.00;;;;;;;;5024761;28;11507;-71
2023/01/14 14:44:57;;;;;;;;;11.25;8.00;;;;;;;;5024746;28;9628;-72
2023/01/14 14:47:36;;;;;;;;;12.50;10.00;;;;;;;;5025715;28;9511;-72
2023/01/14 14:50:15;;;;;;;;;13.50;11.25;;;;;;;;5024516;28;12205;-72
2023/01/14 14:52:40;;;;;;;;;13.50;12.50;;;;;;;;5026322;28;11581;-69
2023/01/14 14:55:09;;;;;;;;;14.75;13.00;;;;;;;;5031521;28;12271;-69
2023/01/14 14:57:35;;;;;;;;;14.50;12.50;;;;;;;;5068587;28;8790;-74
2023/01/14 15:00:05;;;;;;;;;14.00;12.25;;;;;;;;5050419;28;11445;-73
2023/01/14 15:02:41;;;;;;;;;9.00;6.25;;;;;;;;5068588;28;9685;-72
2023/01/14 15:05:07;;;;;;;;;11.25;10.00;;;;;;;;5049842;28;11367;-73
2023/01/14 15:07:36;;;;;;;;;9.00;9.00;;;;;;;;5049791;28;11415;-73
2023/01/14 15:10:01;;;;;;;;;5.50;5.50;;;;;;;;5068368;28;11482;-72
2023/01/14 15:12:26;;;;;;;;;6.00;6.00;;;;;;;;5071283;28;11447;-71
2023/01/14 15:14:56;;;;;;;;;7.50;7.00;;;;;;;;5071856;28;8899;-72
2023/01/14 15:17:22;;;;;;;;;7.75;6.00;;;;;;;;5074721;28;8807;-73
2023/01/14 15:19:48;;;;;;;;;10.50;9.25;;;;;;;;5074309;28;11430;-73
2023/01/14 15:22:16;;;;;;;;;10.75;8.00;;;;;;;;5093238;28;8796;-71
2023/01/14 15:24:41;;;;;;;;;15.75;11.50;;;;;;;;5092930;28;11490;-72
2023/01/14 15:27:12;;;;;;;;;9.50;9.00;;;;;;;;5092746;28;11371;-74
2023/01/14 15:29:37;;;;;;;;;17.00;17.00;;;;;;;;5092721;28;8815;-71
2023/01/14 15:32:21;;;;;;;;;14.50;10.50;;;;;;;;5092493;28;11453;-72
2023/01/14 15:34:49;;;;;;;;;9.00;5.00;;;;;;;;5075634;28;8821;-71
2023/01/14 15:37:23;;;;;;;;;22.00;15.25;;;;;;;;5071788;28;11392;-70
2023/01/14 15:39:49;;;;;;;;;13.50;9.50;;;;;;;;5071913;28;11428;-71
2023/01/14 15:42:21;;;;;;;;;11.25;11.00;;;;;;;;5072620;28;11400;-72
2023/01/14 15:44:48;;;;;;;;;18.50;14.25;;;;;;;;5092040;28;8956;-72
2023/01/14 15:47:17;;;;;;;;;12.00;12.00;;;;;;;;5091968;28;11404;-71
2023/01/14 15:49:45;;;;;;;;;15.75;14.00;;;;;;;;5091966;28;11418;-72
2023/01/14 15:52:30;;;;;;;;;18.25;13.00;;;;;;;;5092176;28;11411;-72
2023/01/14 15:55:04;;;;;;;;;15.75;10.50;;;;;;;;5091982;28;11438;-71
2023/01/14 15:57:39;;;;;;;;;13.00;12.00;;;;;;;;5091973;28;11393;-70
2023/01/14 16:00:08;;;;;;;;;10.50;9.50;;;;;;;;5091807;28;11405;-73
2023/01/14 16:02:33;;;;;;;;;15.00;13.75;;;;;;;;5054171;28;11407;-73
2023/01/14 16:05:17;;;;;;;;;14.25;12.50;;;;;;;;5071552;28;11441;-73
2023/01/14 16:07:42;;;;;;;;;19.50;17.00;;;;;;;;5071427;28;8790;-75
2023/01/14 16:10:08;;;;;;;;;16.75;16.25;;;;;;;;5071551;28;11520;-72
2023/01/14 16:12:33;;;;;;;;;20.00;17.00;;;;;;;;5074773;28;9690;-71
2023/01/14 16:14:59;;;;;;;;;17.50;13.00;;;;;;;;5073483;28;8824;-71
2023/01/14 16:17:24;;;;;;;;;16.50;12.75;;;;;;;;5091362;28;8898;-74
2023/01/14 16:19:56;;;;;;;;;16.50;16.50;;;;;;;;5090593;22;11743;-74
2023/01/14 16:22:21;;;;;;;;;16.00;14.50;;;;;;;;5015364;28;8990;-75
2023/01/14 16:24:46;;;;;;;;;16.25;16.00;;;;;;;;5018664;28;11602;-74
2023/01/14 16:27:18;;;;;;;;;21.50;17.00;;;;;;;;5015442;28;8932;-73
2023/01/14 16:29:43;;;;;;;;;18.25;16.25;;;;;;;;5018260;28;8950;-74
2023/01/14 16:32:11;;;;;;;;;17.00;17.00;;;;;;;;5018678;28;11804;-74
2023/01/14 16:34:37;;;;;;;;;11.50;11.50;;;;;;;;5017263;28;8838;-74
2023/01/14 16:37:02;;;;;;;;;15.75;15.00;;;;;;;;5019240;28;12323;-73
2023/01/14 16:39:28;;;;;;;;;13.00;13.00;;;;;;;;5018158;28;8830;-74
2023/01/14 16:41:53;;;;;;;;;31.25;28.25;;;;;;;;5016939;28;8856;-74
2023/01/14 16:44:18;;;;;;;;;30.50;30.50;;;;;;;;5023093;28;8808;-74
2023/01/14 16:46:44;;;;;;;;;29.00;27.00;;;;;;;;5014557;28;8851;-75
2023/01/14 16:49:09;;;;;;;;;29.75;27.50;;;;;;;;5011608;28;8834;-75
2023/01/14 16:51:35;;;;;;;;;28.75;26.75;;;;;;;;5008726;28;8945;-74
2023/01/14 16:54:01;;;;;;;;;20.25;19.50;;;;;;;;5010411;28;8833;-73
2023/01/14 16:56:26;;;;;;;;;26.75;23.00;;;;;;;;5012962;28;11566;-73
2023/01/14 16:58:53;;;;;;;;;27.75;25.00;;;;;;;;5018634;28;8819;-73
2023/01/14 17:01:18;;;;;;;;;26.50;22.50;;;;;;;;5018055;28;8816;-74
2023/01/14 17:03:44;;;;;;;;;22.25;18.75;;;;;;;;5020206;28;11552;-72
2023/01/14 17:06:13;;;;;;;;;22.00;19.00;;;;;;;;5018758;28;8794;-73
2023/01/14 17:08:39;;;;;;;;;24.75;22.50;;;;;;;;5017618;28;9530;-74
2023/01/14 17:12:37;;;;;;;;;26.75;22.00;;;;;;;;5020408;28;11524;-74
2023/01/14 17:13:55;;;;;;;;;24.00;24.00;;;;;;;;5043727;28;9535;-72
2023/01/14 17:16:20;;;;;;;;;26.50;22.50;;;;;;;;5042434;28;11547;-73
2023/01/14 17:18:48;;;;;;;;;24.50;24.50;;;;;;;;5030105;28;8949;-72
2023/01/14 17:21:14;;;;;;;;;26.25;24.00;;;;;;;;5026334;28;8923;-73
2023/01/14 17:23:40;;;;;;;;;28.00;24.25;;;;;;;;5021108;28;11623;-73
2023/01/14 17:26:09;;;;;;;;;32.00;31.25;;;;;;;;5020155;28;11553;-71
2023/01/14 17:28:35;;;;;;;;;40.75;34.25;;;;;;;;5025909;28;8851;-69
2023/01/14 17:31:05;;;;;;;;;32.50;25.00;;;;;;;;5024263;28;11532;-71
2023/01/14 17:33:30;;;;;;;;;33.50;31.50;;;;;;;;5020983;28;11648;-70
2023/01/14 17:35:57;;;;;;;;;33.75;32.25;;;;;;;;5020774;28;11637;-71
2023/01/14 17:38:23;;;;;;;;;30.00;26.75;;;;;;;;5020760;28;8831;-70
2023/01/14 17:40:48;;;;;;;;;34.25;30.75;;;;;;;;5025562;28;11541;-69
2023/01/14 17:43:13;;;;;;;;;33.75;30.00;;;;;;;;5024359;28;8846;-69
2023/01/14 17:45:38;;;;;;;;;37.75;31.25;;;;;;;;5021374;28;8917;-69
2023/01/14 17:48:04;;;;;;;;;43.00;33.75;;;;;;;;5022641;28;8894;-68
2023/01/14 17:50:29;;;;;;;;;41.50;40.50;;;;;;;;5025055;28;8815;-71
2023/01/14 17:52:54;;;;;;;;;45.75;40.75;;;;;;;;5021075;28;8798;-70
2023/01/14 17:55:20;;;;;;;;;44.25;40.00;;;;;;;;5022607;28;8883;-71
2023/01/14 17:57:45;;;;;;;;;57.33;48.33;;;;;;;;5022727;28;9541;-70
2023/01/14 18:00:12;;;;;;;;;37.75;35.00;;;;;;;;5028054;28;8942;-73
2023/01/14 18:02:37;;;;;;;;;40.00;38.50;;;;;;;;5023387;28;8927;-71
2023/01/14 18:05:02;;;;;;;;;50.00;41.25;;;;;;;;5027531;28;11602;-72
2023/01/14 18:07:28;;;;;;;;;47.50;38.75;;;;;;;;5028317;28;8792;-72
2023/01/14 18:09:53;;;;;;;;;53.00;42.25;;;;;;;;5032773;28;8979;-74
2023/01/14 18:12:19;;;;;;;;;47.00;41.00;;;;;;;;5047602;28;9006;-72
2023/01/14 18:14:44;;;;;;;;;43.00;40.50;;;;;;;;5030868;28;8831;-69
2023/01/14 18:17:10;;;;;;;;;44.33;40.67;;;;;;;;5028462;28;9527;-71
2023/01/14 18:19:35;;;;;;;;;44.25;38.75;;;;;;;;5026435;28;9007;-70
2023/01/14 18:22:01;;;;;;;;;45.00;42.00;;;;;;;;5027004;28;8851;-72
2023/01/14 18:24:26;;;;;;;;;50.33;41.00;;;;;;;;5028311;28;8919;-70
2023/01/14 18:26:52;;;;;;;;;59.00;45.33;;;;;;;;5028272;28;8865;-69
2023/01/14 18:29:17;;;;;;;;;49.25;43.25;;;;;;;;5026817;28;8844;-69
2023/01/14 18:31:43;;;;;;;;;47.67;44.00;;;;;;;;5036560;28;8905;-68
2023/01/14 18:34:09;;;;;;;;;48.25;43.75;;;;;;;;5042436;28;8809;-72
2023/01/14 18:36:38;;;;;;;;;44.75;41.00;;;;;;;;5046118;28;8986;-73
2023/01/14 18:39:04;;;;;;;;;41.25;38.00;;;;;;;;5040211;28;11596;-73
2023/01/14 18:41:29;;;;;;;;;35.00;32.75;;;;;;;;5027445;28;11685;-74
2023/01/14 18:43:55;;;;;;;;;47.25;41.00;;;;;;;;5022778;28;8819;-74
2023/01/14 18:46:22;;;;;;;;;38.75;38.75;;;;;;;;5026272;28;8878;-74
2023/01/14 18:48:50;;;;;;;;;45.50;41.00;;;;;;;;5024596;28;11656;-73
2023/01/14 18:51:16;;;;;;;;;41.50;41.00;;;;;;;;5035609;28;11576;-77
2023/01/14 18:53:41;;;;;;;;;49.75;41.00;;;;;;;;5027427;28;11687;-78
2023/01/14 18:56:10;;;;;;;;;34.50;30.00;;;;;;;;5029811;28;11591;-78
2023/01/14 18:58:38;;;;;;;;;47.00;35.75;;;;;;;;5032883;28;8801;-77
2023/01/14 19:01:07;;;;;;;;;50.00;41.00;;;;;;;;5035501;28;12331;-78
2023/01/14 19:03:32;;;;;;;;;48.33;41.00;;;;;;;;5028325;28;11607;-79
2023/01/14 19:05:58;;;;;;;;;53.00;45.00;;;;;;;;5030995;28;11574;-77
2023/01/14 19:08:24;;;;;;;;;52.67;44.67;;;;;;;;5028444;28;9598;-74
2023/01/14 19:10:54;;;;;;;;;53.33;44.67;;;;;;;;5031387;28;11572;-72
2023/01/14 19:13:19;;;;;;;;;56.33;45.00;;;;;;;;5029129;28;10656;-72
2023/01/14 19:15:44;;;;;;;;;52.00;44.67;;;;;;;;5030079;28;11640;-71
2023/01/14 19:18:10;;;;;;;;;50.00;44.00;;;;;;;;5032069;28;8846;-69
2023/01/14 19:20:35;;;;;;;;;45.67;43.33;;;;;;;;5029420;28;8866;-70
2023/01/14 19:23:01;;;;;;;;;56.33;45.00;;;;;;;;5029752;28;8828;-70
2023/01/14 19:25:26;;;;;;;;;53.33;45.33;;;;;;;;5030722;28;8808;-70
2023/01/14 19:27:51;;;;;;;;;60.33;46.33;;;;;;;;5033836;28;8792;-72
2023/01/14 19:30:16;;;;;;;;;49.00;44.00;;;;;;;;5030155;28;8815;-72
2023/01/14 19:32:43;;;;;;;;;54.67;45.33;;;;;;;;5031768;28;8811;-72
2023/01/14 19:35:09;;;;;;;;;51.00;45.00;;;;;;;;5027248;28;8816;-72
2023/01/14 19:37:34;;;;;;;;;54.33;41.33;;;;;;;;5033358;28;11572;-71
2023/01/14 19:39:59;;;;;;;;;51.00;45.67;;;;;;;;5032238;28;8808;-71
2023/01/14 19:42:24;;;;;;;;;55.00;47.33;;;;;;;;5032691;28;8835;-70
2023/01/14 19:44:50;;;;;;;;;53.67;44.00;;;;;;;;5030805;28;8819;-70
2023/01/14 19:47:15;;;;;;;;;46.75;41.00;;;;;;;;5030810;28;8834;-71
2023/01/14 19:49:40;;;;;;;;;50.33;42.00;;;;;;;;5028577;28;8845;-69
2023/01/14 19:52:05;;;;;;;;;45.33;41.00;;;;;;;;5029193;28;9580;-72
2023/01/14 19:54:31;;;;;;;;;51.67;43.33;;;;;;;;5030605;28;8788;-71
2023/01/14 19:56:56;;;;;;;;;45.00;39.33;;;;;;;;5030605;28;8818;-71
2023/01/14 19:59:21;;;;;;;;;50.00;41.33;;;;;;;;5028241;28;8839;-69
2023/01/14 20:01:46;;;;;;;;;44.33;41.00;;;;;;;;5029767;28;8814;-70
2023/01/14 20:04:13;;;;;;;;;49.67;41.00;;;;;;;;5033267;28;8815;-74
2023/01/14 20:06:39;;;;;;;;;43.00;37.00;;;;;;;;5030512;28;8807;-71
2023/01/14 20:09:05;;;;;;;;;40.50;35.00;;;;;;;;5028792;28;11675;-72
2023/01/14 20:11:30;;;;;;;;;37.75;35.75;;;;;;;;5026034;28;9483;-72
2023/01/14 20:13:56;;;;;;;;;44.50;37.75;;;;;;;;5032042;28;11533;-73
2023/01/14 20:16:23;;;;;;;;;45.33;41.00;;;;;;;;5028703;28;8804;-71
2023/01/14 20:18:48;;;;;;;;;44.00;33.50;;;;;;;;5029274;28;9620;-71
2023/01/14 20:21:15;;;;;;;;;39.25;36.75;;;;;;;;5030224;28;11590;-72
2023/01/14 20:23:41;;;;;;;;;37.50;34.00;;;;;;;;5029487;28;9526;-72
2023/01/14 20:26:08;;;;;;;;;45.33;40.67;;;;;;;;5029860;28;11763;-70
2023/01/14 20:28:33;;;;;;;;;38.75;34.50;;;;;;;;5027622;28;8861;-70
2023/01/14 20:31:04;;;;;;;;;23.00;23.00;;;;;;;;5029967;28;11543;-72
2023/01/14 20:33:29;;;;;;;;;38.75;34.00;;;;;;;;5028393;28;8812;-71
2023/01/14 20:35:56;;;;;;;;;44.50;38.50;;;;;;;;5030047;28;11575;-73
2023/01/14 20:38:23;;;;;;;;;36.25;35.00;;;;;;;;5028598;28;8796;-74
2023/01/14 20:40:50;;;;;;;;;37.25;32.00;;;;;;;;5030696;28;11527;-72
2023/01/14 20:43:15;;;;;;;;;39.75;37.25;;;;;;;;5039746;28;11546;-72
2023/01/14 20:45:41;;;;;;;;;33.25;29.75;;;;;;;;5050609;28;11494;-73
2023/01/14 20:48:21;;;;;;;;;48.33;41.00;;;;;;;;5050477;28;8836;-73
2023/01/14 20:50:50;;;;;;;;;44.33;38.67;;;;;;;;5050707;28;8805;-77
2023/01/14 20:53:17;;;;;;;;;48.33;40.67;;;;;;;;5050328;28;11532;-73
2023/01/14 20:55:43;;;;;;;;;46.67;42.67;;;;;;;;5049134;28;11543;-72
2023/01/14 20:58:14;;;;;;;;;46.67;41.00;;;;;;;;5036887;28;8819;-72
2023/01/14 21:00:40;;;;;;;;;40.33;40.33;;;;;;;;5024718;28;11579;-72
2023/01/14 21:03:05;;;;;;;;;44.00;38.33;;;;;;;;5017263;28;11572;-72
2023/01/14 21:05:30;;;;;;;;;44.00;39.25;;;;;;;;5030370;28;11564;-80
2023/01/14 21:07:55;;;;;;;;;42.67;39.67;;;;;;;;5028717;28;8965;-73
2023/01/14 21:10:22;;;;;;;;;38.50;37.25;;;;;;;;5030128;28;8869;-74
2023/01/14 21:12:47;;;;;;;;;42.75;36.75;;;;;;;;5034579;28;8918;-73
2023/01/14 21:23:24;;;;;;;;;43.00;38.50;;;;;;;;5029418;28;11561;-77
2023/01/14 21:25:50;;;;;;;;;34.50;31.50;;;;;;;;5034467;28;11573;-73
2023/01/14 21:28:15;;;;;;;;;24.50;19.00;;;;;;;;5047561;28;8875;-74
2023/01/14 21:35:51;;;;;;;;;38.25;35.00;;;;;;;;5054280;22;11644;-81
2023/01/14 21:38:17;;;;;;;;;36.75;36.25;;;;;;;;5025432;28;11576;-76
2023/01/14 21:40:42;;;;;;;;;39.25;33.75;;;;;;;;5029854;28;11594;-87
2023/01/14 21:43:26;;;;;;;;;33.00;33.00;;;;;;;;5029909;28;8930;-77
2023/01/14 21:45:52;;;;;;;;;37.25;36.75;;;;;;;;5030924;28;8848;-75
2023/01/14 21:48:18;;;;;;;;;43.33;39.33;;;;;;;;5030900;28;11676;-73
2023/01/14 21:50:47;;;;;;;;;44.00;37.33;;;;;;;;5030868;28;11665;-74
2023/01/14 21:53:13;;;;;;;;;46.33;41.00;;;;;;;;5030705;28;8796;-73
2023/01/14 21:55:43;;;;;;;;;40.67;39.67;;;;;;;;5030470;28;11594;-75
2023/01/14 21:58:13;;;;;;;;;45.00;40.00;;;;;;;;5030362;28;8800;-74
2023/01/14 22:00:39;;;;;;;;;48.67;43.00;;;;;;;;5030947;28;11558;-74
2023/01/14 22:03:04;;;;;;;;;48.00;44.67;;;;;;;;5030662;28;8898;-74
2023/01/14 22:05:30;;;;;;;;;45.67;43.00;;;;;;;;5030480;28;9508;-74
2023/01/14 22:07:57;;;;;;;;;44.67;39.00;;;;;;;;5030181;28;8828;-74
2023/01/14 22:10:22;;;;;;;;;53.67;44.33;;;;;;;;5030272;28;11701;-73
2023/01/14 22:12:48;;;;;;;;;42.67;40.67;;;;;;;;5030552;28;9494;-73
2023/01/14 22:15:13;;;;;;;;;42.67;39.67;;;;;;;;5029215;28;8816;-75
2023/01/14 22:17:39;;;;;;;;;46.00;39.33;;;;;;;;5030378;28;8939;-72
2023/01/14 22:20:05;;;;;;;;;48.33;39.67;;;;;;;;5029030;28;8910;-72
2023/01/14 22:22:33;;;;;;;;;42.67;42.33;;;;;;;;5030328;28;8923;-74
2023/01/14 22:24:59;;;;;;;;;45.33;40.33;;;;;;;;5029739;28;8922;-74
2023/01/14 22:27:26;;;;;;;;;49.33;42.00;;;;;;;;5028095;28;11679;-74
2023/01/14 22:29:51;;;;;;;;;36.67;36.67;;;;;;;;5028786;28;9635;-74
2023/01/14 22:32:17;;;;;;;;;45.00;42.00;;;;;;;;5030237;28;11549;-73
2023/01/14 22:34:42;;;;;;;;;37.00;36.00;;;;;;;;5029090;28;8838;-73
2023/01/14 22:37:07;;;;;;;;;44.67;38.33;;;;;;;;5030084;28;8824;-73
2023/01/14 22:39:32;;;;;;;;;49.00;41.67;;;;;;;;5029635;28;8907;-74